sensor_id;sensor_type;location;lat;lon;timestamp;temperature;humidity
29353;DHT22;16344;50.364;8.944;2022-11-20T00:01:14;21.90;1.00
29353;DHT22;16344;50.364;8.944;2022-11-20T00:03:40;21.90;1.00
29353;DHT22;16344;50.364;8.944;2022-11-20T00:06:08;21.90;1.00
29353;DHT22;16344;50.364;8.944;2022-11-20T00:08:34;22.00;1.00
29353;DHT22;16344;50.364;8.944;2022-11-20T00:11:07;21.90;1.00
29353;DHT22;16344;50.364;8.944;2022-11-20T00:13:34;21.90;1.00
29353;DHT22;16344;50.364;8.944;2022-11-20T00:16:01;21.90;1.00
29353;DHT22;16344;50.364;8.944;2022-11-20T00:18:27;21.80;1.00
29353;DHT22;16344;50.364;8.944;2022-11-20T00:20:53;21.80;1.00
29353;DHT22;16344;50.364;8.944;2022-11-20T00:23:19;21.80;1.00
29353;DHT22;16344;50.364;8.944;2022-11-20T00:25:45;21.70;1.00
29353;DHT22;16344;50.364;8.944;2022-11-20T00:28:10;21.70;1.00
29353;DHT22;16344;50.364;8.944;2022-11-20T00:30:36;21.70;1.00
29353;DHT22;16344;50.364;8.944;2022-11-20T00:33:01;21.70;1.00
29353;DHT22;16344;50.364;8.944;2022-11-20T00:35:27;21.70;1.00
29353;DHT22;16344;50.364;8.944;2022-11-20T00:37:52;21.90;1.00
29353;DHT22;16344;50.364;8.944;2022-11-20T00:40:18;21.90;1.00
29353;DHT22;16344;50.364;8.944;2022-11-20T00:42:44;22.00;1.00
29353;DHT22;16344;50.364;8.944;2022-11-20T00:45:09;21.90;1.00
29353;DHT22;16344;50.364;8.944;2022-11-20T00:47:35;22.00;1.00
29353;DHT22;16344;50.364;8.944;2022-11-20T00:50:00;21.90;1.00
29353;DHT22;16344;50.364;8.944;2022-11-20T00:52:26;21.80;1.00
29353;DHT22;16344;50.364;8.944;2022-11-20T00:54:51;21.80;1.00
29353;DHT22;16344;50.364;8.944;2022-11-20T00:57:17;21.90;1.00
29353;DHT22;16344;50.364;8.944;2022-11-20T00:59:42;21.80;1.00
29353;DHT22;16344;50.364;8.944;2022-11-20T01:02:08;21.80;1.00
29353;DHT22;16344;50.364;8.944;2022-11-20T01:04:33;21.90;1.00
29353;DHT22;16344;50.364;8.944;2022-11-20T01:06:59;21.90;1.00
29353;DHT22;16344;50.364;8.944;2022-11-20T01:09:24;21.80;1.00
29353;DHT22;16344;50.364;8.944;2022-11-20T01:11:50;21.90;1.00
29353;DHT22;16344;50.364;8.944;2022-11-20T01:14:18;21.90;1.00
29353;DHT22;16344;50.364;8.944;2022-11-20T01:16:49;21.80;1.00
29353;DHT22;16344;50.364;8.944;2022-11-20T01:19:20;21.80;1.00
29353;DHT22;16344;50.364;8.944;2022-11-20T01:21:49;21.90;1.00
29353;DHT22;16344;50.364;8.944;2022-11-20T01:24:16;21.90;1.00
29353;DHT22;16344;50.364;8.944;2022-11-20T01:26:44;21.90;1.00
29353;DHT22;16344;50.364;8.944;2022-11-20T01:29:14;21.70;1.00
29353;DHT22;16344;50.364;8.944;2022-11-20T01:31:40;21.70;1.00
29353;DHT22;16344;50.364;8.944;2022-11-20T01:34:09;21.70;1.00
29353;DHT22;16344;50.364;8.944;2022-11-20T01:36:36;21.70;1.00
29353;DHT22;16344;50.364;8.944;2022-11-20T01:39:10;21.70;1.00
29353;DHT22;16344;50.364;8.944;2022-11-20T01:41:36;21.70;1.00
29353;DHT22;16344;50.364;8.944;2022-11-20T01:44:41;21.70;1.00
29353;DHT22;16344;50.364;8.944;2022-11-20T01:47:09;21.70;1.00
29353;DHT22;16344;50.364;8.944;2022-11-20T01:49:58;21.80;1.00
29353;DHT22;16344;50.364;8.944;2022-11-20T01:52:40;21.70;1.00
29353;DHT22;16344;50.364;8.944;2022-11-20T01:55:33;21.70;1.00
29353;DHT22;16344;50.364;8.944;2022-11-20T01:57:57;21.90;1.00
29353;DHT22;16344;50.364;8.944;2022-11-20T02:00:23;21.80;1.00
29353;DHT22;16344;50.364;8.944;2022-11-20T02:02:57;21.80;1.00
29353;DHT22;16344;50.364;8.944;2022-11-20T02:05:40;21.70;1.00
29353;DHT22;16344;50.364;8.944;2022-11-20T02:08:08;21.70;1.00
29353;DHT22;16344;50.364;8.944;2022-11-20T02:10:34;21.70;1.00
29353;DHT22;16344;50.364;8.944;2022-11-20T02:13:00;21.60;1.00
29353;DHT22;16344;50.364;8.944;2022-11-20T02:15:44;21.70;1.00
29353;DHT22;16344;50.364;8.944;2022-11-20T02:18:11;21.70;1.00
29353;DHT22;16344;50.364;8.944;2022-11-20T02:20:41;21.60;1.00
29353;DHT22;16344;50.364;8.944;2022-11-20T02:23:33;21.70;1.00
29353;DHT22;16344;50.364;8.944;2022-11-20T02:26:03;21.60;1.00
29353;DHT22;16344;50.364;8.944;2022-11-20T02:28:31;21.60;1.00
29353;DHT22;16344;50.364;8.944;2022-11-20T02:30:56;21.60;1.00
29353;DHT22;16344;50.364;8.944;2022-11-20T02:33:22;21.70;1.00
29353;DHT22;16344;50.364;8.944;2022-11-20T02:35:47;21.70;1.00
29353;DHT22;16344;50.364;8.944;2022-11-20T02:38:14;21.70;1.00
29353;DHT22;16344;50.364;8.944;2022-11-20T02:40:40;21.60;1.00
29353;DHT22;16344;50.364;8.944;2022-11-20T02:43:06;21.60;1.00
29353;DHT22;16344;50.364;8.944;2022-11-20T02:45:31;21.60;1.00
29353;DHT22;16344;50.364;8.944;2022-11-20T02:47:57;21.60;1.00
29353;DHT22;16344;50.364;8.944;2022-11-20T02:50:22;21.70;1.00
29353;DHT22;16344;50.364;8.944;2022-11-20T02:52:48;21.70;1.00
29353;DHT22;16344;50.364;8.944;2022-11-20T02:55:13;21.70;1.00
29353;DHT22;16344;50.364;8.944;2022-11-20T02:57:39;21.70;1.00
29353;DHT22;16344;50.364;8.944;2022-11-20T03:00:05;21.70;1.00
29353;DHT22;16344;50.364;8.944;2022-11-20T03:02:32;21.70;1.00
29353;DHT22;16344;50.364;8.944;2022-11-20T03:04:57;21.70;1.00
29353;DHT22;16344;50.364;8.944;2022-11-20T03:07:23;21.70;1.00
29353;DHT22;16344;50.364;8.944;2022-11-20T03:09:48;21.60;1.00
29353;DHT22;16344;50.364;8.944;2022-11-20T03:12:14;21.60;1.00
29353;DHT22;16344;50.364;8.944;2022-11-20T03:14:40;21.60;1.00
29353;DHT22;16344;50.364;8.944;2022-11-20T03:17:05;21.60;1.00
29353;DHT22;16344;50.364;8.944;2022-11-20T03:19:31;21.60;1.00
29353;DHT22;16344;50.364;8.944;2022-11-20T03:21:56;21.60;1.00
29353;DHT22;16344;50.364;8.944;2022-11-20T03:24:22;21.60;1.00
29353;DHT22;16344;50.364;8.944;2022-11-20T03:26:47;21.50;1.00
29353;DHT22;16344;50.364;8.944;2022-11-20T03:29:13;21.50;1.00
29353;DHT22;16344;50.364;8.944;2022-11-20T03:31:40;21.50;1.00
29353;DHT22;16344;50.364;8.944;2022-11-20T03:34:06;21.50;1.00
29353;DHT22;16344;50.364;8.944;2022-11-20T03:36:33;21.50;1.00
29353;DHT22;16344;50.364;8.944;2022-11-20T03:38:59;21.70;1.00
29353;DHT22;16344;50.364;8.944;2022-11-20T03:41:29;21.70;1.00
29353;DHT22;16344;50.364;8.944;2022-11-20T03:44:00;21.70;1.00
29353;DHT22;16344;50.364;8.944;2022-11-20T03:46:26;21.70;1.00
29353;DHT22;16344;50.364;8.944;2022-11-20T03:48:53;21.70;1.00
29353;DHT22;16344;50.364;8.944;2022-11-20T03:51:21;21.60;1.00
29353;DHT22;16344;50.364;8.944;2022-11-20T03:53:48;21.60;1.00
29353;DHT22;16344;50.364;8.944;2022-11-20T03:56:15;21.60;1.00
29353;DHT22;16344;50.364;8.944;2022-11-20T03:58:42;21.60;1.00
29353;DHT22;16344;50.364;8.944;2022-11-20T04:01:16;21.60;1.00
29353;DHT22;16344;50.364;8.944;2022-11-20T04:03:43;21.60;1.00
29353;DHT22;16344;50.364;8.944;2022-11-20T04:08:39;21.60;1.00
29353;DHT22;16344;50.364;8.944;2022-11-20T04:13:37;21.60;1.00
29353;DHT22;16344;50.364;8.944;2022-11-20T04:16:04;21.50;1.00
29353;DHT22;16344;50.364;8.944;2022-11-20T04:18:30;21.60;1.00
29353;DHT22;16344;50.364;8.944;2022-11-20T04:20:57;21.60;1.00
29353;DHT22;16344;50.364;8.944;2022-11-20T04:23:22;21.60;1.00
29353;DHT22;16344;50.364;8.944;2022-11-20T04:25:48;21.60;1.00
29353;DHT22;16344;50.364;8.944;2022-11-20T04:28:13;21.60;1.00
29353;DHT22;16344;50.364;8.944;2022-11-20T04:30:39;21.60;1.00
29353;DHT22;16344;50.364;8.944;2022-11-20T04:33:04;21.60;1.00
29353;DHT22;16344;50.364;8.944;2022-11-20T04:35:30;21.70;1.00
29353;DHT22;16344;50.364;8.944;2022-11-20T04:37:58;21.60;1.00
29353;DHT22;16344;50.364;8.944;2022-11-20T04:40:24;21.60;1.00
29353;DHT22;16344;50.364;8.944;2022-11-20T04:42:49;21.60;1.00
29353;DHT22;16344;50.364;8.944;2022-11-20T04:45:15;21.70;1.00
29353;DHT22;16344;50.364;8.944;2022-11-20T04:47:40;21.70;1.00
29353;DHT22;16344;50.364;8.944;2022-11-20T04:50:06;21.60;1.00
29353;DHT22;16344;50.364;8.944;2022-11-20T04:52:32;21.60;1.00
29353;DHT22;16344;50.364;8.944;2022-11-20T04:54:57;21.60;1.00
29353;DHT22;16344;50.364;8.944;2022-11-20T04:57:23;21.60;1.00
29353;DHT22;16344;50.364;8.944;2022-11-20T04:59:48;21.60;1.00
29353;DHT22;16344;50.364;8.944;2022-11-20T05:02:14;21.60;1.00
29353;DHT22;16344;50.364;8.944;2022-11-20T05:04:39;21.60;1.00
29353;DHT22;16344;50.364;8.944;2022-11-20T05:07:05;21.60;1.00
29353;DHT22;16344;50.364;8.944;2022-11-20T05:09:30;21.60;1.00
29353;DHT22;16344;50.364;8.944;2022-11-20T05:11:56;21.60;1.00
29353;DHT22;16344;50.364;8.944;2022-11-20T05:14:22;21.60;1.00
29353;DHT22;16344;50.364;8.944;2022-11-20T05:16:47;21.60;1.00
29353;DHT22;16344;50.364;8.944;2022-11-20T05:19:13;21.60;1.00
29353;DHT22;16344;50.364;8.944;2022-11-20T05:21:38;21.60;1.00
29353;DHT22;16344;50.364;8.944;2022-11-20T05:24:04;21.60;1.00
29353;DHT22;16344;50.364;8.944;2022-11-20T05:26:30;21.70;1.00
29353;DHT22;16344;50.364;8.944;2022-11-20T05:28:55;21.70;1.00
29353;DHT22;16344;50.364;8.944;2022-11-20T05:31:23;21.60;1.00
29353;DHT22;16344;50.364;8.944;2022-11-20T05:33:49;21.60;1.00
29353;DHT22;16344;50.364;8.944;2022-11-20T05:36:16;21.60;1.00
29353;DHT22;16344;50.364;8.944;2022-11-20T05:38:42;21.60;1.00
29353;DHT22;16344;50.364;8.944;2022-11-20T05:43:37;21.60;1.00
29353;DHT22;16344;50.364;8.944;2022-11-20T05:46:04;21.60;1.00
29353;DHT22;16344;50.364;8.944;2022-11-20T05:48:31;21.60;1.00
29353;DHT22;16344;50.364;8.944;2022-11-20T05:50:58;21.60;1.00
29353;DHT22;16344;50.364;8.944;2022-11-20T05:53:24;21.60;1.00
29353;DHT22;16344;50.364;8.944;2022-11-20T05:56:10;21.60;1.00
29353;DHT22;16344;50.364;8.944;2022-11-20T05:58:37;21.60;1.00
29353;DHT22;16344;50.364;8.944;2022-11-20T06:03:35;21.70;1.00
29353;DHT22;16344;50.364;8.944;2022-11-20T06:06:02;21.80;1.00
29353;DHT22;16344;50.364;8.944;2022-11-20T06:08:29;21.70;1.00
29353;DHT22;16344;50.364;8.944;2022-11-20T06:10:54;21.60;1.00
29353;DHT22;16344;50.364;8.944;2022-11-20T06:13:20;21.60;1.00
29353;DHT22;16344;50.364;8.944;2022-11-20T06:15:53;21.60;1.00
29353;DHT22;16344;50.364;8.944;2022-11-20T06:18:20;21.60;1.00
29353;DHT22;16344;50.364;8.944;2022-11-20T06:20:46;21.60;1.00
29353;DHT22;16344;50.364;8.944;2022-11-20T06:23:12;21.60;1.00
29353;DHT22;16344;50.364;8.944;2022-11-20T06:25:41;21.60;1.00
29353;DHT22;16344;50.364;8.944;2022-11-20T06:28:07;21.50;1.00
29353;DHT22;16344;50.364;8.944;2022-11-20T06:30:33;21.50;1.00
29353;DHT22;16344;50.364;8.944;2022-11-20T06:32:59;21.50;1.00
29353;DHT22;16344;50.364;8.944;2022-11-20T06:35:24;21.60;1.00
29353;DHT22;16344;50.364;8.944;2022-11-20T06:37:50;21.60;1.00
29353;DHT22;16344;50.364;8.944;2022-11-20T06:40:15;21.60;1.00
29353;DHT22;16344;50.364;8.944;2022-11-20T06:42:41;21.70;1.00
29353;DHT22;16344;50.364;8.944;2022-11-20T06:45:07;21.80;1.00
29353;DHT22;16344;50.364;8.944;2022-11-20T06:47:33;21.70;1.00
29353;DHT22;16344;50.364;8.944;2022-11-20T06:49:59;21.70;1.00
29353;DHT22;16344;50.364;8.944;2022-11-20T06:52:24;21.60;1.00
29353;DHT22;16344;50.364;8.944;2022-11-20T06:54:50;21.50;1.00
29353;DHT22;16344;50.364;8.944;2022-11-20T06:57:15;21.50;1.00
29353;DHT22;16344;50.364;8.944;2022-11-20T06:59:41;21.50;1.00
29353;DHT22;16344;50.364;8.944;2022-11-20T07:02:10;21.50;1.00
29353;DHT22;16344;50.364;8.944;2022-11-20T07:04:36;21.60;1.00
29353;DHT22;16344;50.364;8.944;2022-11-20T07:07:01;21.50;1.00
29353;DHT22;16344;50.364;8.944;2022-11-20T07:09:27;21.50;1.00
29353;DHT22;16344;50.364;8.944;2022-11-20T07:11:52;21.50;1.00
29353;DHT22;16344;50.364;8.944;2022-11-20T07:14:18;21.60;1.00
29353;DHT22;16344;50.364;8.944;2022-11-20T07:16:43;21.60;1.00
29353;DHT22;16344;50.364;8.944;2022-11-20T07:19:09;21.60;1.00
29353;DHT22;16344;50.364;8.944;2022-11-20T07:21:34;21.70;1.00
29353;DHT22;16344;50.364;8.944;2022-11-20T07:24:00;21.70;1.00
29353;DHT22;16344;50.364;8.944;2022-11-20T07:26:25;21.70;1.00
29353;DHT22;16344;50.364;8.944;2022-11-20T07:28:51;21.60;1.00
29353;DHT22;16344;50.364;8.944;2022-11-20T07:31:16;21.50;1.00
29353;DHT22;16344;50.364;8.944;2022-11-20T07:33:42;21.60;1.00
29353;DHT22;16344;50.364;8.944;2022-11-20T07:36:07;21.60;1.00
29353;DHT22;16344;50.364;8.944;2022-11-20T07:38:33;21.60;1.00
29353;DHT22;16344;50.364;8.944;2022-11-20T07:40:59;21.60;1.00
29353;DHT22;16344;50.364;8.944;2022-11-20T07:43:27;21.70;1.00
29353;DHT22;16344;50.364;8.944;2022-11-20T07:45:55;21.80;1.00
29353;DHT22;16344;50.364;8.944;2022-11-20T07:48:21;21.90;1.00
29353;DHT22;16344;50.364;8.944;2022-11-20T07:50:47;21.80;1.00
29353;DHT22;16344;50.364;8.944;2022-11-20T07:53:12;21.70;1.00
29353;DHT22;16344;50.364;8.944;2022-11-20T07:55:39;21.70;1.00
29353;DHT22;16344;50.364;8.944;2022-11-20T07:58:05;21.80;1.00
29353;DHT22;16344;50.364;8.944;2022-11-20T08:00:30;21.80;1.00
29353;DHT22;16344;50.364;8.944;2022-11-20T08:02:56;21.70;1.00
29353;DHT22;16344;50.364;8.944;2022-11-20T08:05:21;21.70;1.00
29353;DHT22;16344;50.364;8.944;2022-11-20T08:07:47;21.70;1.00
29353;DHT22;16344;50.364;8.944;2022-11-20T08:10:14;21.80;1.00
29353;DHT22;16344;50.364;8.944;2022-11-20T08:12:51;21.90;44.70
29353;DHT22;16344;50.364;8.944;2022-11-20T08:15:36;22.20;1.00
29353;DHT22;16344;50.364;8.944;2022-11-20T08:18:07;22.30;1.00
29353;DHT22;16344;50.364;8.944;2022-11-20T08:20:33;22.40;1.00
29353;DHT22;16344;50.364;8.944;2022-11-20T08:23:07;22.50;1.00
29353;DHT22;16344;50.364;8.944;2022-11-20T08:25:33;22.50;1.00
29353;DHT22;16344;50.364;8.944;2022-11-20T08:28:00;22.50;1.00
29353;DHT22;16344;50.364;8.944;2022-11-20T08:30:26;22.50;1.00
29353;DHT22;16344;50.364;8.944;2022-11-20T08:32:53;22.40;1.00
29353;DHT22;16344;50.364;8.944;2022-11-20T08:35:19;22.20;1.00
29353;DHT22;16344;50.364;8.944;2022-11-20T08:37:48;22.20;1.00
29353;DHT22;16344;50.364;8.944;2022-11-20T08:40:14;22.10;1.00
29353;DHT22;16344;50.364;8.944;2022-11-20T08:42:50;22.00;1.00
29353;DHT22;16344;50.364;8.944;2022-11-20T08:45:17;21.90;1.00
29353;DHT22;16344;50.364;8.944;2022-11-20T08:47:44;21.90;1.00
29353;DHT22;16344;50.364;8.944;2022-11-20T08:50:11;21.80;1.00
29353;DHT22;16344;50.364;8.944;2022-11-20T08:52:36;21.80;1.00
29353;DHT22;16344;50.364;8.944;2022-11-20T08:55:03;21.80;1.00
29353;DHT22;16344;50.364;8.944;2022-11-20T08:57:34;21.80;1.00
29353;DHT22;16344;50.364;8.944;2022-11-20T09:00:00;21.80;1.00
29353;DHT22;16344;50.364;8.944;2022-11-20T09:02:26;21.80;1.00
29353;DHT22;16344;50.364;8.944;2022-11-20T09:04:51;21.80;1.00
29353;DHT22;16344;50.364;8.944;2022-11-20T09:07:18;21.90;1.00
29353;DHT22;16344;50.364;8.944;2022-11-20T09:09:44;21.90;1.00
29353;DHT22;16344;50.364;8.944;2022-11-20T09:12:09;21.90;1.00
29353;DHT22;16344;50.364;8.944;2022-11-20T09:14:35;21.80;1.00
29353;DHT22;16344;50.364;8.944;2022-11-20T09:17:01;21.80;1.00
29353;DHT22;16344;50.364;8.944;2022-11-20T09:19:26;21.80;1.00
29353;DHT22;16344;50.364;8.944;2022-11-20T09:21:52;21.80;1.00
29353;DHT22;16344;50.364;8.944;2022-11-20T09:24:17;21.80;1.00
29353;DHT22;16344;50.364;8.944;2022-11-20T09:26:43;21.80;1.00
29353;DHT22;16344;50.364;8.944;2022-11-20T09:29:09;21.80;1.00
29353;DHT22;16344;50.364;8.944;2022-11-20T09:31:34;21.90;1.00
29353;DHT22;16344;50.364;8.944;2022-11-20T09:34:00;21.80;1.00
29353;DHT22;16344;50.364;8.944;2022-11-20T09:36:26;21.90;1.00
29353;DHT22;16344;50.364;8.944;2022-11-20T09:38:51;21.90;1.00
29353;DHT22;16344;50.364;8.944;2022-11-20T09:41:38;21.90;1.00
29353;DHT22;16344;50.364;8.944;2022-11-20T09:44:10;21.90;1.00
29353;DHT22;16344;50.364;8.944;2022-11-20T09:46:54;21.80;1.00
29353;DHT22;16344;50.364;8.944;2022-11-20T09:54:44;21.80;1.00
29353;DHT22;16344;50.364;8.944;2022-11-20T09:57:12;21.90;1.00
29353;DHT22;16344;50.364;8.944;2022-11-20T09:59:59;21.90;1.00
29353;DHT22;16344;50.364;8.944;2022-11-20T10:02:27;21.80;1.00
29353;DHT22;16344;50.364;8.944;2022-11-20T10:05:11;21.80;1.00
29353;DHT22;16344;50.364;8.944;2022-11-20T10:10:46;21.80;1.00
29353;DHT22;16344;50.364;8.944;2022-11-20T10:13:44;21.80;1.00
29353;DHT22;16344;50.364;8.944;2022-11-20T10:30:11;21.70;1.00
29353;DHT22;16344;50.364;8.944;2022-11-20T10:32:43;21.70;1.00
29353;DHT22;16344;50.364;8.944;2022-11-20T10:35:28;21.80;1.00
29353;DHT22;16344;50.364;8.944;2022-11-20T10:38:00;21.80;1.00
29353;DHT22;16344;50.364;8.944;2022-11-20T10:40:31;21.80;1.00
29353;DHT22;16344;50.364;8.944;2022-11-20T10:43:04;21.90;1.00
29353;DHT22;16344;50.364;8.944;2022-11-20T10:45:58;21.90;1.00
29353;DHT22;16344;50.364;8.944;2022-11-20T10:48:26;21.90;1.00
29353;DHT22;16344;50.364;8.944;2022-11-20T10:51:13;22.00;1.00
29353;DHT22;16344;50.364;8.944;2022-11-20T10:53:47;21.90;1.00
29353;DHT22;16344;50.364;8.944;2022-11-20T10:56:25;21.90;1.00
29353;DHT22;16344;50.364;8.944;2022-11-20T11:01:42;21.90;1.00
29353;DHT22;16344;50.364;8.944;2022-11-20T11:04:39;21.80;1.00
29353;DHT22;16344;50.364;8.944;2022-11-20T11:07:27;21.90;1.00
29353;DHT22;16344;50.364;8.944;2022-11-20T11:09:56;21.90;1.00
29353;DHT22;16344;50.364;8.944;2022-11-20T11:12:24;21.90;1.00
29353;DHT22;16344;50.364;8.944;2022-11-20T11:14:51;21.90;1.00
29353;DHT22;16344;50.364;8.944;2022-11-20T11:17:24;21.90;1.00
29353;DHT22;16344;50.364;8.944;2022-11-20T11:22:45;22.00;1.00
29353;DHT22;16344;50.364;8.944;2022-11-20T11:27:47;21.90;1.00
29353;DHT22;16344;50.364;8.944;2022-11-20T11:30:18;22.00;1.00
29353;DHT22;16344;50.364;8.944;2022-11-20T11:32:44;22.00;1.00
29353;DHT22;16344;50.364;8.944;2022-11-20T11:35:27;22.10;1.00
29353;DHT22;16344;50.364;8.944;2022-11-20T11:38:02;22.10;1.00
29353;DHT22;16344;50.364;8.944;2022-11-20T11:40:28;22.10;1.00
29353;DHT22;16344;50.364;8.944;2022-11-20T11:43:02;22.10;1.00
29353;DHT22;16344;50.364;8.944;2022-11-20T11:45:29;22.00;1.00
29353;DHT22;16344;50.364;8.944;2022-11-20T11:47:58;22.10;1.00
29353;DHT22;16344;50.364;8.944;2022-11-20T11:50:27;22.10;1.00
29353;DHT22;16344;50.364;8.944;2022-11-20T11:55:49;22.10;1.00
29353;DHT22;16344;50.364;8.944;2022-11-20T12:04:05;22.00;1.00
29353;DHT22;16344;50.364;8.944;2022-11-20T12:06:34;22.00;1.00
29353;DHT22;16344;50.364;8.944;2022-11-20T12:09:05;22.00;1.00
29353;DHT22;16344;50.364;8.944;2022-11-20T12:11:52;22.00;1.00
29353;DHT22;16344;50.364;8.944;2022-11-20T12:14:34;22.00;1.00
29353;DHT22;16344;50.364;8.944;2022-11-20T12:17:01;21.90;1.00
29353;DHT22;16344;50.364;8.944;2022-11-20T12:19:31;21.90;1.00
29353;DHT22;16344;50.364;8.944;2022-11-20T12:25:14;22.00;1.00
29353;DHT22;16344;50.364;8.944;2022-11-20T12:27:43;22.00;1.00
29353;DHT22;16344;50.364;8.944;2022-11-20T12:30:15;22.20;1.00
29353;DHT22;16344;50.364;8.944;2022-11-20T12:47:09;22.00;1.00
29353;DHT22;16344;50.364;8.944;2022-11-20T12:55:12;22.00;1.00
29353;DHT22;16344;50.364;8.944;2022-11-20T12:57:47;22.10;1.00
29353;DHT22;16344;50.364;8.944;2022-11-20T13:05:18;22.20;1.00
29353;DHT22;16344;50.364;8.944;2022-11-20T13:07:46;22.00;1.00
29353;DHT22;16344;50.364;8.944;2022-11-20T13:13:00;21.50;1.00
29353;DHT22;16344;50.364;8.944;2022-11-20T13:16:00;21.50;1.00
29353;DHT22;16344;50.364;8.944;2022-11-20T13:18:27;21.60;1.00
29353;DHT22;16344;50.364;8.944;2022-11-20T13:20:54;21.60;1.00
29353;DHT22;16344;50.364;8.944;2022-11-20T13:23:27;21.50;1.00
29353;DHT22;16344;50.364;8.944;2022-11-20T13:26:25;21.50;1.00
29353;DHT22;16344;50.364;8.944;2022-11-20T13:29:10;21.40;1.00
29353;DHT22;16344;50.364;8.944;2022-11-20T13:31:40;21.60;1.00
29353;DHT22;16344;50.364;8.944;2022-11-20T13:34:24;21.80;1.00
29353;DHT22;16344;50.364;8.944;2022-11-20T13:36:56;21.70;1.00
29353;DHT22;16344;50.364;8.944;2022-11-20T13:39:35;21.70;1.00
29353;DHT22;16344;50.364;8.944;2022-11-20T13:44:48;21.80;1.00
29353;DHT22;16344;50.364;8.944;2022-11-20T13:47:24;21.90;1.00
29353;DHT22;16344;50.364;8.944;2022-11-20T13:49:51;21.70;1.00
29353;DHT22;16344;50.364;8.944;2022-11-20T13:55:40;21.70;1.00
29353;DHT22;16344;50.364;8.944;2022-11-20T13:58:23;21.70;1.00
29353;DHT22;16344;50.364;8.944;2022-11-20T14:01:10;21.70;1.00
29353;DHT22;16344;50.364;8.944;2022-11-20T14:03:36;21.70;1.00
29353;DHT22;16344;50.364;8.944;2022-11-20T14:06:05;21.90;1.00
29353;DHT22;16344;50.364;8.944;2022-11-20T14:08:47;21.80;1.00
29353;DHT22;16344;50.364;8.944;2022-11-20T14:14:02;21.90;1.00
29353;DHT22;16344;50.364;8.944;2022-11-20T14:16:34;21.90;1.00
29353;DHT22;16344;50.364;8.944;2022-11-20T14:22:07;21.80;1.00
29353;DHT22;16344;50.364;8.944;2022-11-20T14:24:33;21.90;1.00
29353;DHT22;16344;50.364;8.944;2022-11-20T14:26:59;21.80;1.00
29353;DHT22;16344;50.364;8.944;2022-11-20T14:29:33;21.80;1.00
29353;DHT22;16344;50.364;8.944;2022-11-20T14:31:59;21.80;1.00
29353;DHT22;16344;50.364;8.944;2022-11-20T14:34:28;22.00;1.00
29353;DHT22;16344;50.364;8.944;2022-11-20T14:37:00;21.90;1.00
29353;DHT22;16344;50.364;8.944;2022-11-20T14:39:35;21.90;1.00
29353;DHT22;16344;50.364;8.944;2022-11-20T14:42:03;21.90;1.00
29353;DHT22;16344;50.364;8.944;2022-11-20T14:44:33;21.90;1.00
29353;DHT22;16344;50.364;8.944;2022-11-20T14:47:01;21.80;1.00
29353;DHT22;16344;50.364;8.944;2022-11-20T14:49:30;21.70;1.00
29353;DHT22;16344;50.364;8.944;2022-11-20T14:54:26;21.70;1.00
29353;DHT22;16344;50.364;8.944;2022-11-20T14:56:58;21.70;1.00
29353;DHT22;16344;50.364;8.944;2022-11-20T14:59:34;21.70;1.00
29353;DHT22;16344;50.364;8.944;2022-11-20T15:04:27;21.90;1.00
29353;DHT22;16344;50.364;8.944;2022-11-20T15:06:55;21.80;1.00
29353;DHT22;16344;50.364;8.944;2022-11-20T15:09:22;21.80;1.00
29353;DHT22;16344;50.364;8.944;2022-11-20T15:12:03;21.80;1.00
29353;DHT22;16344;50.364;8.944;2022-11-20T15:14:30;21.70;1.00
29353;DHT22;16344;50.364;8.944;2022-11-20T15:16:56;21.70;1.00
29353;DHT22;16344;50.364;8.944;2022-11-20T15:19:23;21.70;1.00
29353;DHT22;16344;50.364;8.944;2022-11-20T15:21:49;21.90;1.00
29353;DHT22;16344;50.364;8.944;2022-11-20T15:24:16;21.80;1.00
29353;DHT22;16344;50.364;8.944;2022-11-20T15:26:41;21.80;1.00
29353;DHT22;16344;50.364;8.944;2022-11-20T15:29:12;21.70;1.00
29353;DHT22;16344;50.364;8.944;2022-11-20T15:31:38;21.70;1.00
29353;DHT22;16344;50.364;8.944;2022-11-20T15:34:12;21.80;1.00
29353;DHT22;16344;50.364;8.944;2022-11-20T15:36:39;21.80;1.00
29353;DHT22;16344;50.364;8.944;2022-11-20T15:39:05;21.70;1.00
29353;DHT22;16344;50.364;8.944;2022-11-20T15:41:32;21.70;1.00
29353;DHT22;16344;50.364;8.944;2022-11-20T15:43:58;21.60;1.00
29353;DHT22;16344;50.364;8.944;2022-11-20T15:46:27;21.60;1.00
29353;DHT22;16344;50.364;8.944;2022-11-20T15:48:57;21.60;1.00
29353;DHT22;16344;50.364;8.944;2022-11-20T15:51:56;21.70;1.00
29353;DHT22;16344;50.364;8.944;2022-11-20T15:54:22;21.60;1.00
29353;DHT22;16344;50.364;8.944;2022-11-20T15:56:49;21.80;1.00
29353;DHT22;16344;50.364;8.944;2022-11-20T15:59:15;21.70;1.00
29353;DHT22;16344;50.364;8.944;2022-11-20T16:01:41;21.60;1.00
29353;DHT22;16344;50.364;8.944;2022-11-20T16:04:11;21.60;1.00
29353;DHT22;16344;50.364;8.944;2022-11-20T16:06:37;21.60;1.00
29353;DHT22;16344;50.364;8.944;2022-11-20T16:09:03;21.70;1.00
29353;DHT22;16344;50.364;8.944;2022-11-20T16:11:29;21.70;1.00
29353;DHT22;16344;50.364;8.944;2022-11-20T16:13:54;21.70;1.00
29353;DHT22;16344;50.364;8.944;2022-11-20T16:16:39;21.70;1.00
29353;DHT22;16344;50.364;8.944;2022-11-20T16:19:09;21.70;1.00
29353;DHT22;16344;50.364;8.944;2022-11-20T16:21:34;21.80;1.00
29353;DHT22;16344;50.364;8.944;2022-11-20T16:24:05;21.80;1.00
29353;DHT22;16344;50.364;8.944;2022-11-20T16:26:31;21.70;1.00
29353;DHT22;16344;50.364;8.944;2022-11-20T16:28:59;21.70;1.00
29353;DHT22;16344;50.364;8.944;2022-11-20T16:31:24;21.70;1.00
29353;DHT22;16344;50.364;8.944;2022-11-20T16:33:51;21.60;1.00
29353;DHT22;16344;50.364;8.944;2022-11-20T16:36:17;21.60;1.00
29353;DHT22;16344;50.364;8.944;2022-11-20T16:38:43;21.60;1.00
29353;DHT22;16344;50.364;8.944;2022-11-20T16:41:09;21.60;1.00
29353;DHT22;16344;50.364;8.944;2022-11-20T16:43:59;21.60;1.00
29353;DHT22;16344;50.364;8.944;2022-11-20T16:46:28;21.70;1.00
29353;DHT22;16344;50.364;8.944;2022-11-20T16:48:59;21.70;1.00
29353;DHT22;16344;50.364;8.944;2022-11-20T16:51:26;21.80;1.00
29353;DHT22;16344;50.364;8.944;2022-11-20T16:53:52;21.70;1.00
29353;DHT22;16344;50.364;8.944;2022-11-20T16:56:22;21.70;1.00
29353;DHT22;16344;50.364;8.944;2022-11-20T16:58:48;21.70;1.00
29353;DHT22;16344;50.364;8.944;2022-11-20T17:01:17;21.70;1.00
29353;DHT22;16344;50.364;8.944;2022-11-20T17:03:45;21.60;1.00
29353;DHT22;16344;50.364;8.944;2022-11-20T17:08:37;21.70;1.00
29353;DHT22;16344;50.364;8.944;2022-11-20T17:11:07;21.70;1.00
29353;DHT22;16344;50.364;8.944;2022-11-20T17:13:33;21.70;1.00
29353;DHT22;16344;50.364;8.944;2022-11-20T17:16:07;21.70;1.00
29353;DHT22;16344;50.364;8.944;2022-11-20T17:18:33;21.90;1.00
29353;DHT22;16344;50.364;8.944;2022-11-20T17:20:59;22.00;1.00
29353;DHT22;16344;50.364;8.944;2022-11-20T17:23:36;22.00;1.00
29353;DHT22;16344;50.364;8.944;2022-11-20T17:26:27;21.90;1.00
29353;DHT22;16344;50.364;8.944;2022-11-20T17:28:58;21.90;1.00
29353;DHT22;16344;50.364;8.944;2022-11-20T17:31:25;21.90;1.00
29353;DHT22;16344;50.364;8.944;2022-11-20T17:33:51;21.90;1.00
29353;DHT22;16344;50.364;8.944;2022-11-20T17:36:17;21.90;1.00